Time;durP1;ratioP1;P1;durP2;ratioP2;P2;SDS_P1;SDS_P2;PMS_P1;PMS_P2;Temp;Humidity;BMP_temperature;BMP_pressure;BME280_temperature;BME280_humidity;BME280_pressure;Samples;Min_cycle;Max_cycle;Signal;HPM_P1;HPM_P2
2021/08/04 00:02:23;;;;;;;;;;;16.40;87.60;;;;;;5051727;28;19990;-76
2021/08/04 00:04:49;;;;;;;;;;;16.30;87.70;;;;;;5052296;28;20444;-76
2021/08/04 00:07:16;;;;;;;;;;;16.30;87.90;;;;;;5047058;28;20327;-76
2021/08/04 00:09:45;;;;;;;;;;;16.30;87.80;;;;;;5052030;28;19928;-76
2021/08/04 00:12:11;;;;;;;;;;;16.40;87.80;;;;;;5052129;28;20047;-76
2021/08/04 00:14:37;;;;;;;;;;;16.40;87.70;;;;;;5037661;28;19925;-76
2021/08/04 00:17:03;;;;;;;;;;;16.40;87.70;;;;;;5052032;28;19935;-76
2021/08/04 00:19:32;;;;;;;;;;;16.50;87.50;;;;;;5037546;28;19932;-76
2021/08/04 00:21:58;;;;;;;;;;;16.40;87.40;;;;;;5051956;28;19925;-76
2021/08/04 00:24:24;;;;;;;;;;;16.40;87.60;;;;;;5051684;28;19936;-76
2021/08/04 00:26:50;;;;;;;;;;;16.40;87.90;;;;;;5051935;28;19931;-76
2021/08/04 00:29:17;;;;;;;;;;;16.30;88.10;;;;;;5051373;28;19925;-76
2021/08/04 00:31:43;;;;;;;;;;;16.30;88.20;;;;;;5051547;28;19925;-76
2021/08/04 00:34:09;;;;;;;;;;;16.30;88.50;;;;;;5052045;28;20008;-76
2021/08/04 00:36:35;;;;;;;;;;;16.20;88.90;;;;;;5051791;28;20407;-76
2021/08/04 00:39:01;;;;;;;;;;;16.10;89.30;;;;;;5048165;28;20313;-76
2021/08/04 00:41:28;;;;;;;;;;;16.10;89.50;;;;;;5033351;28;19932;-76
2021/08/04 00:43:54;;;;;;;;;;;16.20;89.40;;;;;;5051622;28;19925;-76
2021/08/04 00:46:20;;;;;;;;;;;16.20;89.30;;;;;;5051559;28;19965;-76
2021/08/04 00:48:47;;;;;;;;;;;16.20;89.20;;;;;;5051588;28;19947;-76
2021/08/04 00:51:14;;;;;;;;;;;16.20;89.00;;;;;;5051858;28;20006;-76
2021/08/04 00:53:40;;;;;;;;;;;16.20;89.00;;;;;;5051455;28;19957;-76
2021/08/04 00:56:07;;;;;;;;;;;16.30;89.00;;;;;;5051785;28;19944;-76
2021/08/04 00:58:41;;;;;;;;;;;16.20;88.90;;;;;;5051696;28;19925;-76
2021/08/04 01:01:10;;;;;;;;;;;16.20;89.20;;;;;;5051686;28;20529;-80
2021/08/04 01:03:45;;;;;;;;;;;16.20;89.40;;;;;;5051240;28;19925;-76
2021/08/04 01:06:17;;;;;;;;;;;16.20;89.40;;;;;;5051899;28;19972;-76
2021/08/04 01:08:53;;;;;;;;;;;16.10;89.50;;;;;;5047114;28;19925;-76
2021/08/04 01:11:29;;;;;;;;;;;16.10;89.60;;;;;;5051481;28;19932;-76
2021/08/04 01:13:57;;;;;;;;;;;16.10;89.60;;;;;;5039549;28;19931;-76
2021/08/04 01:16:25;;;;;;;;;;;16.10;89.70;;;;;;5049966;28;19932;-76
2021/08/04 01:18:58;;;;;;;;;;;16.00;89.80;;;;;;5051403;28;19925;-76
2021/08/04 01:21:37;;;;;;;;;;;15.90;90.10;;;;;;5051037;28;19983;-76
2021/08/04 01:24:06;;;;;;;;;;;16.00;90.20;;;;;;5051655;28;19972;-76
2021/08/04 01:26:40;;;;;;;;;;;16.00;90.10;;;;;;5051111;28;20290;-76
2021/08/04 01:29:14;;;;;;;;;;;16.00;90.00;;;;;;5051743;28;19932;-76
2021/08/04 01:31:41;;;;;;;;;;;16.00;89.90;;;;;;5051337;28;19971;-76
2021/08/04 01:34:08;;;;;;;;;;;16.00;89.90;;;;;;5051693;28;19931;-76
2021/08/04 01:36:35;;;;;;;;;;;16.00;89.80;;;;;;5041439;28;19925;-76
2021/08/04 01:39:02;;;;;;;;;;;16.00;89.90;;;;;;5047628;28;19936;-76
2021/08/04 01:41:30;;;;;;;;;;;16.00;89.90;;;;;;5051254;28;19947;-76
2021/08/04 01:43:56;;;;;;;;;;;16.00;89.80;;;;;;5055247;28;19935;-76
2021/08/04 01:46:22;;;;;;;;;;;16.00;89.70;;;;;;5054990;28;19948;-76
2021/08/04 01:48:51;;;;;;;;;;;16.00;89.50;;;;;;5054511;28;19925;-76
2021/08/04 01:51:17;;;;;;;;;;;16.00;89.50;;;;;;5054895;28;19932;-76
2021/08/04 01:53:45;;;;;;;;;;;16.00;89.40;;;;;;5054380;28;20059;-76
2021/08/04 01:56:14;;;;;;;;;;;16.00;89.40;;;;;;5054746;28;19931;-76
2021/08/04 01:58:41;;;;;;;;;;;15.90;88.90;;;;;;5054584;28;20308;-76
2021/08/04 02:01:07;;;;;;;;;;;15.90;89.00;;;;;;5052613;28;20059;-76
2021/08/04 02:03:33;;;;;;;;;;;15.90;89.20;;;;;;5051170;28;19973;-76
2021/08/04 02:06:03;;;;;;;;;;;15.90;89.20;;;;;;5054559;28;20464;-76
2021/08/04 02:08:29;;;;;;;;;;;15.90;89.30;;;;;;5049624;28;19925;-76
2021/08/04 02:11:17;;;;;;;;;;;15.90;89.30;;;;;;5053999;28;19985;-76
2021/08/04 02:13:47;;;;;;;;;;;15.90;89.30;;;;;;5038762;28;19925;-76
2021/08/04 02:16:31;;;;;;;;;;;15.90;89.00;;;;;;5051091;28;19970;-76
2021/08/04 02:19:09;;;;;;;;;;;15.90;89.10;;;;;;5054394;28;19925;-76
2021/08/04 02:21:37;;;;;;;;;;;15.90;89.40;;;;;;5053688;28;19928;-76
2021/08/04 02:24:03;;;;;;;;;;;15.90;89.60;;;;;;5035907;28;19925;-76
2021/08/04 02:26:30;;;;;;;;;;;15.90;89.70;;;;;;5053826;28;19924;-76
2021/08/04 02:28:57;;;;;;;;;;;15.80;89.80;;;;;;5054113;28;19971;-76
2021/08/04 02:31:24;;;;;;;;;;;15.80;90.00;;;;;;5053900;28;20411;-76
2021/08/04 02:33:51;;;;;;;;;;;15.80;90.00;;;;;;5053949;28;19954;-76
2021/08/04 02:36:17;;;;;;;;;;;15.80;90.00;;;;;;5053836;28;19978;-76
2021/08/04 02:38:44;;;;;;;;;;;15.80;90.10;;;;;;5050266;28;19977;-76
2021/08/04 02:41:12;;;;;;;;;;;15.80;90.00;;;;;;5037024;28;20393;-76
2021/08/04 02:43:39;;;;;;;;;;;15.80;90.00;;;;;;5033867;28;19983;-76
2021/08/04 02:46:05;;;;;;;;;;;15.80;90.20;;;;;;5033562;28;19964;-74
2021/08/04 02:48:32;;;;;;;;;;;15.80;90.20;;;;;;5033798;28;20056;-75
2021/08/04 02:51:02;;;;;;;;;;;15.80;90.20;;;;;;5019928;28;19929;-79
2021/08/04 02:53:28;;;;;;;;;;;15.80;90.20;;;;;;5033080;28;19935;-76
2021/08/04 02:55:55;;;;;;;;;;;15.80;90.10;;;;;;5033567;28;19925;-76
2021/08/04 02:58:21;;;;;;;;;;;15.80;90.00;;;;;;5033265;28;19971;-76
2021/08/04 03:00:48;;;;;;;;;;;15.90;89.60;;;;;;5032995;28;20016;-76
2021/08/04 03:03:14;;;;;;;;;;;15.80;89.60;;;;;;5033514;28;20474;-76
2021/08/04 03:05:40;;;;;;;;;;;15.70;90.00;;;;;;5033111;28;19936;-76
2021/08/04 03:08:07;;;;;;;;;;;15.80;90.10;;;;;;5033115;28;19925;-76
2021/08/04 03:10:33;;;;;;;;;;;15.80;90.20;;;;;;5033586;28;19970;-76
2021/08/04 03:12:59;;;;;;;;;;;15.80;90.20;;;;;;5033341;28;19925;-77
2021/08/04 03:15:25;;;;;;;;;;;15.80;90.10;;;;;;5032561;28;20305;-76
2021/08/04 03:17:51;;;;;;;;;;;15.80;90.00;;;;;;5033013;28;19929;-76
2021/08/04 03:20:18;;;;;;;;;;;15.80;90.10;;;;;;5033042;28;20400;-76
2021/08/04 03:22:45;;;;;;;;;;;15.80;90.00;;;;;;5046470;28;20411;-76
2021/08/04 03:25:13;;;;;;;;;;;15.80;89.90;;;;;;5053081;28;19929;-76
2021/08/04 03:27:39;;;;;;;;;;;15.70;89.90;;;;;;5052692;28;19954;-76
2021/08/04 03:30:05;;;;;;;;;;;15.70;90.00;;;;;;5034613;28;19932;-76
2021/08/04 03:32:31;;;;;;;;;;;15.80;90.00;;;;;;5053083;28;19925;-77
2021/08/04 03:34:58;;;;;;;;;;;15.70;89.90;;;;;;5052747;28;19980;-76
2021/08/04 03:37:24;;;;;;;;;;;15.70;89.90;;;;;;5052523;28;19925;-76
2021/08/04 03:39:50;;;;;;;;;;;15.70;89.90;;;;;;5049297;28;19947;-76
2021/08/04 03:42:16;;;;;;;;;;;15.70;90.00;;;;;;5052867;28;20380;-76
2021/08/04 03:44:43;;;;;;;;;;;15.70;90.00;;;;;;5052564;28;19978;-76
2021/08/04 03:47:09;;;;;;;;;;;15.70;90.00;;;;;;5052653;28;19925;-76
2021/08/04 03:49:35;;;;;;;;;;;15.80;90.10;;;;;;5052531;28;19925;-76
2021/08/04 03:52:01;;;;;;;;;;;15.80;90.00;;;;;;5034894;28;19925;-76
2021/08/04 03:54:28;;;;;;;;;;;15.80;90.00;;;;;;5032581;28;19980;-76
2021/08/04 03:56:54;;;;;;;;;;;15.80;90.00;;;;;;5047598;28;19925;-76
2021/08/04 03:59:20;;;;;;;;;;;15.90;89.80;;;;;;5052878;28;19924;-76
2021/08/04 04:01:46;;;;;;;;;;;15.90;89.60;;;;;;5052129;28;19933;-76
2021/08/04 04:04:13;;;;;;;;;;;15.90;89.50;;;;;;5051726;28;20425;-76
2021/08/04 04:06:39;;;;;;;;;;;15.90;90.00;;;;;;5049096;28;20007;-76
2021/08/04 04:09:05;;;;;;;;;;;15.90;89.20;;;;;;5049445;28;19999;-76
2021/08/04 04:11:31;;;;;;;;;;;15.80;89.50;;;;;;5052213;28;20054;-76
2021/08/04 04:13:58;;;;;;;;;;;15.90;89.50;;;;;;5051783;28;20445;-76
2021/08/04 04:16:24;;;;;;;;;;;15.90;89.40;;;;;;5048506;28;19924;-76
2021/08/04 04:18:50;;;;;;;;;;;15.90;89.30;;;;;;5045803;28;19925;-76
2021/08/04 04:21:17;;;;;;;;;;;15.90;89.40;;;;;;5048527;28;19928;-76
2021/08/04 04:23:43;;;;;;;;;;;15.90;89.40;;;;;;5047568;28;20393;-76
2021/08/04 04:26:09;;;;;;;;;;;15.90;89.20;;;;;;5044490;28;19924;-76
2021/08/04 04:28:35;;;;;;;;;;;15.90;89.30;;;;;;5036815;28;20404;-76
2021/08/04 04:31:01;;;;;;;;;;;15.90;89.30;;;;;;5018032;28;20103;-76
2021/08/04 04:33:28;;;;;;;;;;;16.00;89.20;;;;;;5034445;28;19925;-77
2021/08/04 04:35:55;;;;;;;;;;;16.00;89.00;;;;;;5033504;28;19925;-78
2021/08/04 04:38:21;;;;;;;;;;;16.00;88.70;;;;;;5033266;28;19996;-77
2021/08/04 04:40:47;;;;;;;;;;;16.00;88.90;;;;;;5034628;28;20403;-77
2021/08/04 04:43:13;;;;;;;;;;;16.00;88.90;;;;;;5035508;28;19968;-76
2021/08/04 04:45:40;;;;;;;;;;;16.00;88.80;;;;;;5033107;28;19933;-77
2021/08/04 04:48:06;;;;;;;;;;;16.00;88.70;;;;;;5032472;28;19940;-77
2021/08/04 04:50:34;;;;;;;;;;;16.00;88.60;;;;;;5032185;28;20024;-77
2021/08/04 04:53:00;;;;;;;;;;;16.10;88.60;;;;;;5027275;28;19929;-76
2021/08/04 04:55:26;;;;;;;;;;;16.10;88.40;;;;;;5029960;28;20024;-77
2021/08/04 04:57:53;;;;;;;;;;;16.00;88.30;;;;;;5030679;28;19925;-77
2021/08/04 05:00:19;;;;;;;;;;;16.00;88.40;;;;;;5030435;28;19966;-77
2021/08/04 05:02:45;;;;;;;;;;;16.00;88.30;;;;;;5030928;28;19932;-76
2021/08/04 05:05:11;;;;;;;;;;;16.00;88.40;;;;;;5030593;28;20019;-77
2021/08/04 05:07:38;;;;;;;;;;;16.00;88.40;;;;;;5039496;28;20025;-77
2021/08/04 05:10:04;;;;;;;;;;;16.10;89.20;;;;;;5041981;28;19925;-77
2021/08/04 05:12:30;;;;;;;;;;;16.10;88.20;;;;;;5038792;28;19925;-76
2021/08/04 05:14:56;;;;;;;;;;;16.10;88.20;;;;;;5035654;28;20381;-77
2021/08/04 05:17:23;;;;;;;;;;;16.10;88.10;;;;;;5040441;28;19925;-78
2021/08/04 05:19:49;;;;;;;;;;;16.10;88.10;;;;;;5038604;28;19932;-77
2021/08/04 05:22:15;;;;;;;;;;;16.10;88.00;;;;;;5043585;28;20522;-77
2021/08/04 05:24:42;;;;;;;;;;;16.10;87.90;;;;;;5050519;28;19925;-78
2021/08/04 05:27:08;;;;;;;;;;;16.20;87.80;;;;;;5044972;28;20291;-80
2021/08/04 05:29:34;;;;;;;;;;;16.20;87.60;;;;;;5037964;28;20033;-80
2021/08/04 05:32:01;;;;;;;;;;;16.20;87.60;;;;;;5031884;28;20378;-80
2021/08/04 05:34:27;;;;;;;;;;;16.20;87.40;;;;;;5032301;28;19929;-80
2021/08/04 05:36:53;;;;;;;;;;;16.20;87.50;;;;;;5035534;28;20063;-84
2021/08/04 05:39:19;;;;;;;;;;;16.30;87.50;;;;;;5034824;28;19932;-79
2021/08/04 05:41:46;;;;;;;;;;;16.30;87.30;;;;;;5034837;28;19978;-80
2021/08/04 05:44:12;;;;;;;;;;;16.40;87.30;;;;;;5053403;28;19932;-80
2021/08/04 05:46:38;;;;;;;;;;;16.40;87.10;;;;;;5040262;28;20307;-80
2021/08/04 05:49:04;;;;;;;;;;;16.40;86.80;;;;;;5047467;28;20038;-80
2021/08/04 05:51:30;;;;;;;;;;;16.40;86.80;;;;;;5042567;28;19925;-84
2021/08/04 05:53:57;;;;;;;;;;;16.40;86.60;;;;;;5040673;28;19933;-82
2021/08/04 05:56:23;;;;;;;;;;;16.40;86.50;;;;;;5035317;28;19925;-84
2021/08/04 05:58:49;;;;;;;;;;;16.40;86.40;;;;;;5039904;28;20292;-82
2021/08/04 06:01:15;;;;;;;;;;;16.40;86.30;;;;;;5035512;28;19972;-82
2021/08/04 06:03:41;;;;;;;;;;;16.40;86.40;;;;;;5037248;28;19925;-82
2021/08/04 06:06:09;;;;;;;;;;;16.40;86.50;;;;;;5030466;28;19929;-84
2021/08/04 06:08:35;;;;;;;;;;;16.40;86.50;;;;;;5039201;28;19970;-82
2021/08/04 06:11:02;;;;;;;;;;;16.40;86.50;;;;;;5047939;28;20380;-83
2021/08/04 06:13:28;;;;;;;;;;;16.50;86.50;;;;;;5044633;28;19925;-84
2021/08/04 06:15:54;;;;;;;;;;;16.40;86.40;;;;;;5041785;28;19932;-85
2021/08/04 06:18:20;;;;;;;;;;;16.40;86.30;;;;;;5047914;28;19929;-85
2021/08/04 06:20:47;;;;;;;;;;;16.50;86.30;;;;;;5039892;28;20028;-83
2021/08/04 06:23:13;;;;;;;;;;;16.50;86.30;;;;;;5031027;28;19926;-84
2021/08/04 06:25:39;;;;;;;;;;;16.50;86.30;;;;;;5015719;28;19925;-83
2021/08/04 06:28:05;;;;;;;;;;;16.50;86.30;;;;;;5028444;28;20446;-85
2021/08/04 06:30:32;;;;;;;;;;;16.50;86.10;;;;;;5032744;28;19987;-85
2021/08/04 06:32:58;;;;;;;;;;;16.50;85.90;;;;;;5032294;28;20016;-85
2021/08/04 06:35:25;;;;;;;;;;;16.50;86.10;;;;;;5012101;28;19929;-86
2021/08/04 06:37:52;;;;;;;;;;;16.50;85.90;;;;;;5030255;28;19929;-81
2021/08/04 06:40:18;;;;;;;;;;;16.50;85.90;;;;;;5027288;28;19933;-84
2021/08/04 06:42:44;;;;;;;;;;;16.50;85.90;;;;;;5030090;28;20019;-85
2021/08/04 06:45:11;;;;;;;;;;;16.50;85.90;;;;;;5031514;28;20380;-85
2021/08/04 06:47:37;;;;;;;;;;;16.50;85.90;;;;;;5026247;28;19990;-85
2021/08/04 06:50:03;;;;;;;;;;;16.50;85.90;;;;;;5033596;28;19971;-84
2021/08/04 06:52:30;;;;;;;;;;;16.50;86.20;;;;;;5031424;28;20019;-85
2021/08/04 06:54:56;;;;;;;;;;;16.50;86.00;;;;;;5033532;28;20727;-85
2021/08/04 06:57:22;;;;;;;;;;;16.50;85.90;;;;;;5032968;28;19976;-85
2021/08/04 06:59:49;;;;;;;;;;;16.50;85.90;;;;;;5030553;28;19929;-84
2021/08/04 07:02:16;;;;;;;;;;;16.50;85.90;;;;;;5029703;28;20070;-83
2021/08/04 07:04:42;;;;;;;;;;;16.50;85.90;;;;;;5029614;28;19998;-84
2021/08/04 07:07:08;;;;;;;;;;;16.50;85.90;;;;;;5029797;28;19948;-83
2021/08/04 07:09:34;;;;;;;;;;;16.50;85.90;;;;;;5029143;28;19929;-84
2021/08/04 07:12:02;;;;;;;;;;;16.50;85.90;;;;;;5029245;28;19929;-84
2021/08/04 07:14:28;;;;;;;;;;;16.50;85.90;;;;;;5009971;28;19932;-84
2021/08/04 07:16:56;;;;;;;;;;;16.50;85.70;;;;;;5014260;28;20405;-84
2021/08/04 07:19:23;;;;;;;;;;;16.40;85.80;;;;;;5033051;28;19929;-84
2021/08/04 07:21:49;;;;;;;;;;;16.40;85.90;;;;;;5039115;28;20055;-84
2021/08/04 07:24:16;;;;;;;;;;;16.40;85.80;;;;;;5045311;28;20016;-85
2021/08/04 07:26:42;;;;;;;;;;;16.30;85.80;;;;;;5027848;28;19936;-85
2021/08/04 07:29:08;;;;;;;;;;;16.40;85.90;;;;;;5046023;28;20356;-85
2021/08/04 07:31:35;;;;;;;;;;;16.40;85.90;;;;;;5035629;28;19937;-84
2021/08/04 07:34:01;;;;;;;;;;;16.40;86.00;;;;;;5035088;28;20384;-84
2021/08/04 07:36:28;;;;;;;;;;;16.40;86.10;;;;;;5043598;28;19933;-85
2021/08/04 07:38:54;;;;;;;;;;;16.40;85.80;;;;;;5044094;28;19932;-85
2021/08/04 07:41:20;;;;;;;;;;;16.50;85.90;;;;;;5045318;28;19932;-84
2021/08/04 07:43:49;;;;;;;;;;;16.50;85.90;;;;;;5047230;28;20398;-85
2021/08/04 07:46:17;;;;;;;;;;;16.50;85.90;;;;;;5049127;28;20031;-85
2021/08/04 07:48:44;;;;;;;;;;;16.50;85.70;;;;;;5030678;28;19925;-85
2021/08/04 07:51:10;;;;;;;;;;;16.50;85.60;;;;;;5022594;28;19948;-85
2021/08/04 07:53:36;;;;;;;;;;;16.50;85.50;;;;;;5038283;28;20010;-85
2021/08/04 07:56:03;;;;;;;;;;;16.50;85.50;;;;;;5032977;28;20392;-85
2021/08/04 07:58:29;;;;;;;;;;;16.50;85.70;;;;;;5031594;28;19925;-85
2021/08/04 08:00:55;;;;;;;;;;;16.50;85.70;;;;;;5019140;28;20385;-85
2021/08/04 08:03:21;;;;;;;;;;;16.50;85.60;;;;;;5024625;28;20442;-85
2021/08/04 08:05:48;;;;;;;;;;;16.50;85.50;;;;;;5032624;28;19978;-85
2021/08/04 08:08:15;;;;;;;;;;;16.50;85.50;;;;;;5032132;28;19925;-85
2021/08/04 08:10:42;;;;;;;;;;;16.50;85.40;;;;;;5032316;28;20357;-85
2021/08/04 08:13:08;;;;;;;;;;;16.50;85.50;;;;;;5032032;28;19929;-85
2021/08/04 08:15:34;;;;;;;;;;;16.50;85.60;;;;;;5032046;28;19964;-85
2021/08/04 08:18:07;;;;;;;;;;;16.50;85.90;;;;;;5031593;28;19975;-85
2021/08/04 08:20:34;;;;;;;;;;;16.60;86.00;;;;;;5032111;28;20338;-85
2021/08/04 08:23:00;;;;;;;;;;;16.60;86.00;;;;;;5029183;28;19975;-85
2021/08/04 08:25:26;;;;;;;;;;;16.60;86.00;;;;;;5032300;28;19933;-85
2021/08/04 08:27:53;;;;;;;;;;;16.60;86.00;;;;;;5032154;28;19956;-85
2021/08/04 08:30:19;;;;;;;;;;;16.60;86.10;;;;;;5031592;28;20396;-85
2021/08/04 08:32:48;;;;;;;;;;;16.60;86.10;;;;;;5031949;28;20019;-85
2021/08/04 08:35:15;;;;;;;;;;;16.60;86.20;;;;;;5032122;28;19931;-85
2021/08/04 08:37:41;;;;;;;;;;;16.70;86.30;;;;;;5031774;28;20023;-85
2021/08/04 08:40:09;;;;;;;;;;;16.70;86.10;;;;;;5047103;28;19929;-85
2021/08/04 08:42:36;;;;;;;;;;;16.70;86.00;;;;;;5031877;28;19925;-85
2021/08/04 08:45:03;;;;;;;;;;;16.70;86.20;;;;;;5031898;28;19936;-85
2021/08/04 08:47:29;;;;;;;;;;;16.80;86.10;;;;;;5031781;28;19925;-84
2021/08/04 08:49:56;;;;;;;;;;;16.80;86.10;;;;;;5031700;28;20312;-84
2021/08/04 08:52:22;;;;;;;;;;;16.80;86.10;;;;;;5034461;28;19984;-84
2021/08/04 08:54:48;;;;;;;;;;;16.80;86.10;;;;;;5018016;28;20062;-85
2021/08/04 08:57:16;;;;;;;;;;;16.90;86.20;;;;;;5032053;28;19948;-84
2021/08/04 08:59:42;;;;;;;;;;;16.90;86.20;;;;;;5028291;28;19929;-85
2021/08/04 09:02:08;;;;;;;;;;;16.90;85.70;;;;;;5033592;28;19929;-85
2021/08/04 09:04:34;;;;;;;;;;;16.90;85.70;;;;;;5026378;28;19926;-85
2021/08/04 09:07:01;;;;;;;;;;;16.80;85.80;;;;;;5030274;28;19928;-84
2021/08/04 09:09:32;;;;;;;;;;;16.90;86.20;;;;;;5050891;28;19929;-85
2021/08/04 09:12:14;;;;;;;;;;;16.90;86.00;;;;;;5051002;28;19929;-85
2021/08/04 09:14:41;;;;;;;;;;;16.80;86.10;;;;;;5035023;28;19929;-85
2021/08/04 09:17:09;;;;;;;;;;;16.90;86.10;;;;;;5022586;28;19948;-84
2021/08/04 09:19:37;;;;;;;;;;;16.90;86.20;;;;;;5035453;28;19955;-85
2021/08/04 09:22:11;;;;;;;;;;;17.00;85.90;;;;;;5035215;28;20012;-85
2021/08/04 09:24:54;;;;;;;;;;;17.00;85.90;;;;;;5035530;28;20364;-85
2021/08/04 09:27:20;;;;;;;;;;;17.00;85.90;;;;;;5017372;28;20053;-84
2021/08/04 09:29:56;;;;;;;;;;;17.00;85.90;;;;;;5035122;28;19925;-85
2021/08/04 09:32:22;;;;;;;;;;;17.00;85.80;;;;;;5027776;28;19929;-85
2021/08/04 09:34:48;;;;;;;;;;;17.10;85.80;;;;;;5030099;28;19925;-84
2021/08/04 09:37:19;;;;;;;;;;;17.10;85.80;;;;;;5033817;28;19971;-84
2021/08/04 09:39:57;;;;;;;;;;;17.10;85.80;;;;;;5005856;28;20381;-85
2021/08/04 09:42:43;;;;;;;;;;;17.10;86.00;;;;;;5032041;28;19947;-85
2021/08/04 09:45:10;;;;;;;;;;;17.20;86.00;;;;;;5043550;28;19928;-85
2021/08/04 09:47:36;;;;;;;;;;;17.20;86.30;;;;;;5043162;28;19955;-85
2021/08/04 09:50:04;;;;;;;;;;;17.20;85.70;;;;;;5034900;28;19972;-84
2021/08/04 09:52:31;;;;;;;;;;;17.30;85.80;;;;;;5017637;28;19925;-85
2021/08/04 09:55:13;;;;;;;;;;;17.30;85.80;;;;;;5016812;28;20066;-85
2021/08/04 09:57:41;;;;;;;;;;;17.30;85.50;;;;;;5033081;28;19933;-85
2021/08/04 10:00:09;;;;;;;;;;;17.40;85.60;;;;;;5011291;28;19975;-85
2021/08/04 10:02:35;;;;;;;;;;;17.40;85.70;;;;;;5032689;28;19925;-85
2021/08/04 10:05:17;;;;;;;;;;;17.50;85.70;;;;;;5033192;28;19982;-85
2021/08/04 10:07:58;;;;;;;;;;;17.50;85.40;;;;;;5033804;28;19986;-85
2021/08/04 10:10:25;;;;;;;;;;;17.50;85.10;;;;;;5016638;28;19931;-81
2021/08/04 10:12:52;;;;;;;;;;;17.50;85.20;;;;;;5034949;28;19944;-84
2021/08/04 10:15:18;;;;;;;;;;;17.50;85.40;;;;;;5034567;28;20167;-85
2021/08/04 10:17:44;;;;;;;;;;;17.60;85.40;;;;;;5024300;28;20308;-84
2021/08/04 10:20:11;;;;;;;;;;;17.60;84.80;;;;;;5031556;28;20343;-84
2021/08/04 10:22:38;;;;;;;;;;;17.60;85.00;;;;;;5029546;28;20369;-84
2021/08/04 10:25:04;;;;;;;;;;;17.60;85.30;;;;;;5038210;28;19935;-84
2021/08/04 10:27:31;;;;;;;;;;;17.60;85.10;;;;;;5018287;28;19933;-84
2021/08/04 10:29:57;;;;;;;;;;;17.70;85.00;;;;;;5030295;28;19968;-84
2021/08/04 10:32:23;;;;;;;;;;;17.80;85.00;;;;;;5033285;28;20432;-84
2021/08/04 10:34:54;;;;;;;;;;;17.80;84.70;;;;;;5029797;28;19929;-84
2021/08/04 10:37:20;;;;;;;;;;;17.90;84.90;;;;;;5029874;28;20335;-84
2021/08/04 10:39:47;;;;;;;;;;;17.90;84.90;;;;;;5030238;28;20380;-84
2021/08/04 10:42:13;;;;;;;;;;;18.00;84.80;;;;;;5030170;28;20074;-84
2021/08/04 10:44:39;;;;;;;;;;;18.00;84.50;;;;;;5008205;28;20435;-84
2021/08/04 10:47:23;;;;;;;;;;;18.00;84.00;;;;;;5025368;28;19929;-84
2021/08/04 10:50:06;;;;;;;;;;;18.10;83.50;;;;;;5008619;28;19929;-84
2021/08/04 10:52:32;;;;;;;;;;;18.10;83.60;;;;;;5030210;28;19929;-84
2021/08/04 10:55:03;;;;;;;;;;;18.10;83.80;;;;;;5030458;28;19948;-84
2021/08/04 10:57:34;;;;;;;;;;;18.20;84.10;;;;;;5012219;28;20003;-84
2021/08/04 11:00:21;;;;;;;;;;;18.30;83.80;;;;;;5029908;28;19983;-84
2021/08/04 11:02:47;;;;;;;;;;;18.40;83.80;;;;;;5027743;28;19929;-84
2021/08/04 11:05:13;;;;;;;;;;;18.40;83.00;;;;;;5029225;28;19993;-84
2021/08/04 11:08:00;;;;;;;;;;;18.40;82.80;;;;;;5028154;28;20389;-84
2021/08/04 11:10:39;;;;;;;;;;;18.50;82.70;;;;;;5028441;28;20281;-84
2021/08/04 11:13:05;;;;;;;;;;;18.50;82.70;;;;;;5028859;28;19929;-84
2021/08/04 11:15:32;;;;;;;;;;;18.50;82.60;;;;;;5028893;28;19929;-84
2021/08/04 11:18:07;;;;;;;;;;;18.50;82.50;;;;;;5029800;28;20393;-84
2021/08/04 11:20:36;;;;;;;;;;;18.50;82.50;;;;;;5028944;28;20300;-85
2021/08/04 11:23:05;;;;;;;;;;;18.50;82.50;;;;;;5045557;28;19929;-84
2021/08/04 11:25:33;;;;;;;;;;;18.50;82.00;;;;;;5049785;28;19924;-84
2021/08/04 11:27:59;;;;;;;;;;;18.50;82.10;;;;;;5060049;28;19933;-83
2021/08/04 11:30:33;;;;;;;;;;;18.50;82.40;;;;;;5049769;28;19929;-83
2021/08/04 11:33:18;;;;;;;;;;;18.50;82.50;;;;;;5019503;28;19933;-83
2021/08/04 11:35:58;;;;;;;;;;;18.60;82.20;;;;;;5049461;28;20341;-83
2021/08/04 11:38:38;;;;;;;;;;;18.60;82.50;;;;;;5049026;28;20354;-83
2021/08/04 11:41:19;;;;;;;;;;;18.60;82.40;;;;;;5031341;28;20427;-86
2021/08/04 11:43:46;;;;;;;;;;;18.60;82.30;;;;;;5049126;28;19928;-83
2021/08/04 11:46:27;;;;;;;;;;;18.70;82.20;;;;;;5049328;28;20459;-83
2021/08/04 11:48:53;;;;;;;;;;;18.70;82.20;;;;;;5044503;28;19948;-83
2021/08/04 11:51:38;;;;;;;;;;;18.80;81.80;;;;;;5041039;28;20412;-82
2021/08/04 11:54:05;;;;;;;;;;;18.80;81.50;;;;;;5048352;28;19940;-82
2021/08/04 11:56:32;;;;;;;;;;;18.80;81.20;;;;;;5049253;28;19929;-82
2021/08/04 11:59:00;;;;;;;;;;;18.80;81.20;;;;;;5047924;28;20372;-82
2021/08/04 12:01:26;;;;;;;;;;;18.80;80.90;;;;;;5048356;28;19929;-82
2021/08/04 12:04:05;;;;;;;;;;;18.70;80.90;;;;;;5044795;28;20459;-83
2021/08/04 12:06:33;;;;;;;;;;;18.70;80.50;;;;;;5048921;28;19982;-83
2021/08/04 12:09:15;;;;;;;;;;;18.60;80.40;;;;;;5048319;28;19943;-82
2021/08/04 12:11:42;;;;;;;;;;;18.60;80.50;;;;;;5029778;28;19958;-82
2021/08/04 12:14:08;;;;;;;;;;;18.50;80.70;;;;;;5048330;28;19928;-82
2021/08/04 12:16:42;;;;;;;;;;;18.50;80.30;;;;;;5048872;28;19940;-82
2021/08/04 12:19:08;;;;;;;;;;;18.50;80.40;;;;;;5048042;28;19928;-82
2021/08/04 12:21:35;;;;;;;;;;;18.40;80.60;;;;;;5048231;28;19937;-82
2021/08/04 12:24:02;;;;;;;;;;;18.40;80.50;;;;;;5021880;28;19936;-82
2021/08/04 12:26:41;;;;;;;;;;;18.40;80.50;;;;;;5038704;28;19937;-82
2021/08/04 12:29:23;;;;;;;;;;;18.40;80.70;;;;;;5012251;28;19929;-81
2021/08/04 12:32:19;;;;;;;;;;;18.50;80.30;;;;;;5036692;28;19932;-82
2021/08/04 12:34:47;;;;;;;;;;;18.50;80.40;;;;;;5022040;28;19929;-82
2021/08/04 12:37:14;;;;;;;;;;;18.50;80.40;;;;;;5038586;28;19929;-82
2021/08/04 12:39:41;;;;;;;;;;;18.50;80.30;;;;;;5013641;28;19933;-82
2021/08/04 12:42:07;;;;;;;;;;;18.50;80.30;;;;;;5025830;28;20016;-82
2021/08/04 12:44:34;;;;;;;;;;;18.50;80.10;;;;;;5030357;28;19978;-82
2021/08/04 12:47:07;;;;;;;;;;;18.50;79.80;;;;;;5044466;28;20344;-82
2021/08/04 12:49:33;;;;;;;;;;;18.60;79.80;;;;;;5039506;28;19983;-82
2021/08/04 12:52:00;;;;;;;;;;;18.60;79.70;;;;;;5047869;28;20322;-82
2021/08/04 12:54:28;;;;;;;;;;;18.60;79.50;;;;;;5025232;28;19964;-82
2021/08/04 12:56:55;;;;;;;;;;;18.60;79.70;;;;;;5029323;28;19929;-83
2021/08/04 12:59:22;;;;;;;;;;;18.60;79.80;;;;;;5038106;28;19981;-82
2021/08/04 13:01:52;;;;;;;;;;;18.60;79.60;;;;;;5041933;28;19929;-82
2021/08/04 13:04:25;;;;;;;;;;;18.60;79.70;;;;;;5037273;28;19955;-83
2021/08/04 13:06:52;;;;;;;;;;;18.60;80.00;;;;;;5043238;28;20316;-83
2021/08/04 13:09:19;;;;;;;;;;;18.70;79.70;;;;;;5030425;28;19950;-83
2021/08/04 13:11:45;;;;;;;;;;;18.70;79.70;;;;;;5047896;28;19929;-83
2021/08/04 13:14:12;;;;;;;;;;;18.70;79.20;;;;;;5035727;28;19936;-82
2021/08/04 13:16:39;;;;;;;;;;;18.70;78.90;;;;;;5047840;28;20215;-82
2021/08/04 13:19:20;;;;;;;;;;;18.70;79.00;;;;;;5032985;28;19929;-82
2021/08/04 13:22:05;;;;;;;;;;;18.70;79.00;;;;;;5037678;28;19929;-82
2021/08/04 13:24:35;;;;;;;;;;;18.70;79.00;;;;;;5033227;28;19983;-82
2021/08/04 13:27:21;;;;;;;;;;;18.80;79.00;;;;;;5047312;28;19948;-82
2021/08/04 13:29:47;;;;;;;;;;;18.80;78.90;;;;;;5047676;28;19929;-82
2021/08/04 13:32:13;;;;;;;;;;;18.80;79.00;;;;;;5040252;28;20328;-82
2021/08/04 13:34:39;;;;;;;;;;;18.80;78.50;;;;;;5018403;28;19929;-82
2021/08/04 13:37:06;;;;;;;;;;;18.80;78.40;;;;;;5028857;28;20332;-82
2021/08/04 13:39:33;;;;;;;;;;;18.80;78.60;;;;;;5031897;28;19936;-82
2021/08/04 13:41:59;;;;;;;;;;;18.80;78.70;;;;;;5042684;28;19936;-82
2021/08/04 13:44:25;;;;;;;;;;;18.80;78.80;;;;;;5045779;28;19982;-82
2021/08/04 13:46:51;;;;;;;;;;;18.80;79.00;;;;;;5038461;28;19933;-82
2021/08/04 13:49:18;;;;;;;;;;;18.90;79.10;;;;;;5040271;28;19944;-82
2021/08/04 13:51:44;;;;;;;;;;;19.00;79.30;;;;;;5050226;28;19958;-82
2021/08/04 13:54:10;;;;;;;;;;;19.10;78.70;;;;;;5056252;28;19928;-82
2021/08/04 13:56:36;;;;;;;;;;;19.20;77.10;;;;;;5045200;28;20323;-82
2021/08/04 13:59:02;;;;;;;;;;;19.20;76.90;;;;;;5040832;28;19974;-83
2021/08/04 14:01:29;;;;;;;;;;;19.20;76.60;;;;;;5043505;28;20437;-82
2021/08/04 14:03:55;;;;;;;;;;;19.30;76.80;;;;;;5036731;28;20412;-82
2021/08/04 14:06:21;;;;;;;;;;;19.30;76.70;;;;;;5050702;28;20047;-81
2021/08/04 14:08:47;;;;;;;;;;;19.30;76.70;;;;;;5034080;28;20454;-82
2021/08/04 14:11:13;;;;;;;;;;;19.30;76.80;;;;;;5065885;28;19929;-82
2021/08/04 14:13:40;;;;;;;;;;;19.20;76.70;;;;;;5039386;28;20304;-82
2021/08/04 14:16:06;;;;;;;;;;;19.20;76.70;;;;;;5049570;28;19998;-82
2021/08/04 14:18:34;;;;;;;;;;;19.20;76.70;;;;;;5040673;28;20030;-82
2021/08/04 14:21:00;;;;;;;;;;;19.10;76.60;;;;;;5047877;28;20548;-82
2021/08/04 14:23:26;;;;;;;;;;;19.10;76.60;;;;;;5039595;28;20021;-82